Terminal Aerodrome Forecast
Issued by NWS

Home | Current Version | Previous Version | Text Only | Print | Product List | Glossary On
Versions: 1 2 3 4 5 6 7 8 9 10 11 12 13 14 15 16 17 18 19 20 21 22
000
FTUS41 KBGM 211400 AAA
TAFRME
TAF AMD
KRME 211454Z 2115/2212 12005KT P6SM -SHRA SCT035 OVC060
     FM211600 14005KT 6SM -SHRA OVC025
      TEMPO 2116/2120 5SM -SHRA OVC015
     FM212000 08006KT P6SM -SHRA SCT025 OVC035
     FM220000 02007KT 5SM -SHRA OVC015=

USA.gov is the U.S. government's official web portal to all federal, state and local government web resources and services.